Time;durP1;ratioP1;P1;durP2;ratioP2;P2;SDS_P1;SDS_P2;PMS_P1;PMS_P2;Temp;Humidity;BMP_temperature;BMP_pressure;BME280_temperature;BME280_humidity;BME280_pressure;Samples;Min_cycle;Max_cycle;Signal;HPM_P1;HPM_P2
2023/07/04 20:18:14;;;;;;;2.13;0.98;;;;;;;19.21;99.74;96010.72;5071615;28;20575;-66
2023/07/04 20:20:41;;;;;;;1.48;0.82;;;;;;;19.23;98.38;96008.63;5072343;28;20200;-67
2023/07/04 20:23:08;;;;;;;4.00;0.68;;;;;;;19.04;100.00;96012.44;5070920;28;20223;-66
2023/07/04 20:25:35;;;;;;;3.42;1.13;;;;;;;18.95;100.00;96016.53;5072482;28;20214;-66
2023/07/04 20:28:02;;;;;;;2.17;0.88;;;;;;;18.84;100.00;96014.69;5069828;28;20206;-68
2023/07/04 20:30:32;;;;;;;0.93;0.73;;;;;;;18.83;100.00;96018.41;5070832;28;20228;-66
2023/07/04 20:32:59;;;;;;;2.08;0.88;;;;;;;18.65;100.00;96013.16;5069582;28;20223;-65
2023/07/04 20:35:27;;;;;;;0.65;0.60;;;;;;;18.83;100.00;96010.38;5070268;28;20196;-66
2023/07/04 20:37:56;;;;;;;1.17;0.73;;;;;;;18.72;100.00;96013.84;5069179;28;20723;-63
2023/07/04 20:40:22;;;;;;;2.03;0.80;;;;;;;18.80;100.00;96016.19;5069771;28;20203;-67
2023/07/04 20:42:49;;;;;;;3.50;0.50;;;;;;;19.07;100.00;96012.84;5069264;28;20219;-67
2023/07/04 20:45:16;;;;;;;1.35;0.80;;;;;;;18.91;100.00;96010.03;5069524;28;20243;-67
2023/07/04 20:47:43;;;;;;;0.70;0.70;;;;;;;19.01;100.00;96004.91;5069257;28;20231;-68
2023/07/04 20:50:10;;;;;;;1.33;0.82;;;;;;;19.09;100.00;96001.91;5069232;28;20205;-68
2023/07/04 20:52:40;;;;;;;1.40;0.52;;;;;;;19.22;100.00;95996.31;5068621;28;20227;-66
2023/07/04 20:55:09;;;;;;;4.15;0.90;;;;;;;19.31;99.45;96002.91;5068962;28;21242;-65
2023/07/04 20:57:35;;;;;;;3.20;1.55;;;;;;;19.28;100.00;96004.19;5070757;28;20259;-65
2023/07/04 21:00:10;;;;;;;1.17;0.80;;;;;;;19.29;100.00;96005.00;5071501;28;20218;-64
2023/07/04 21:02:36;;;;;;;5.03;0.93;;;;;;;19.33;100.00;96012.31;5069020;28;20196;-66
2023/07/04 21:05:04;;;;;;;1.90;0.85;;;;;;;19.31;100.00;96013.59;5070959;28;20208;-65
2023/07/04 21:07:30;;;;;;;1.85;1.15;;;;;;;19.19;100.00;96007.47;5071548;28;20207;-69
2023/07/04 21:09:58;;;;;;;1.50;0.70;;;;;;;19.25;100.00;96009.22;5070543;28;20211;-67
2023/07/04 21:12:25;;;;;;;7.07;0.85;;;;;;;19.04;100.00;96012.44;5071313;28;20207;-68
2023/07/04 21:14:51;;;;;;;0.70;0.40;;;;;;;18.92;100.00;96017.00;5070784;28;20203;-69
2023/07/04 21:17:18;;;;;;;0.70;0.60;;;;;;;18.81;100.00;96017.81;5070720;28;20708;-66
2023/07/04 21:19:44;;;;;;;5.45;0.95;;;;;;;18.67;100.00;96016.44;5071096;28;20248;-69
2023/07/04 21:22:11;;;;;;;1.52;0.93;;;;;;;18.52;100.00;96017.91;5071192;28;20204;-69
2023/07/04 21:24:37;;;;;;;0.85;0.65;;;;;;;18.62;100.00;96020.81;5071068;28;20212;-67
2023/07/04 21:27:06;;;;;;;1.80;0.80;;;;;;;18.59;100.00;96018.63;5071316;28;20200;-69
2023/07/04 21:29:33;;;;;;;3.45;1.10;;;;;;;18.69;100.00;96014.31;5057167;28;20200;-68
2023/07/04 21:31:59;;;;;;;5.50;1.52;;;;;;;18.83;100.00;96012.25;5057342;28;20261;-66
2023/07/04 21:34:26;;;;;;;1.90;0.90;;;;;;;18.75;100.00;96015.25;5056976;28;20236;-67
2023/07/04 21:36:53;;;;;;;1.23;0.57;;;;;;;18.52;100.00;96009.91;5057723;28;20227;-68
2023/07/04 21:39:20;;;;;;;0.82;0.80;;;;;;;18.25;100.00;96008.72;5057090;28;20211;-68
2023/07/04 21:41:48;;;;;;;18.73;1.25;;;;;;;18.37;100.00;96002.34;5057324;28;20196;-67
2023/07/04 21:44:16;;;;;;;0.60;0.60;;;;;;;18.57;100.00;95994.00;5057321;28;20650;-66
2023/07/04 21:46:42;;;;;;;1.52;0.70;;;;;;;18.37;100.00;95999.69;5057780;28;20193;-66
2023/07/04 21:49:10;;;;;;;3.67;1.08;;;;;;;18.32;100.00;95996.09;5056354;28;20208;-69
2023/07/04 21:51:37;;;;;;;1.27;1.05;;;;;;;18.21;100.00;95993.41;5057446;28;20211;-69
2023/07/04 21:54:03;;;;;;;1.33;0.93;;;;;;;18.25;100.00;95992.69;5057678;28;20235;-68
2023/07/04 21:56:30;;;;;;;1.63;0.80;;;;;;;18.31;100.00;95999.78;5057894;28;20208;-67
2023/07/04 21:58:59;;;;;;;1.95;1.15;;;;;;;18.52;100.00;96000.06;5057077;28;20200;-67
2023/07/04 22:01:27;;;;;;;0.93;0.85;;;;;;;18.62;100.00;95994.13;5058408;28;20200;-69
2023/07/04 22:03:54;;;;;;;2.30;0.68;;;;;;;18.50;100.00;95988.78;5058222;28;20221;-67
2023/07/04 22:06:21;;;;;;;5.25;0.73;;;;;;;18.62;100.00;95988.78;5057295;28;20681;-66
2023/07/04 22:08:47;;;;;;;1.83;0.70;;;;;;;18.31;100.00;95988.31;5057859;28;20531;-68
2023/07/04 22:11:16;;;;;;;1.85;0.80;;;;;;;18.48;100.00;95982.06;5057967;28;20204;-69
2023/07/04 22:13:45;;;;;;;0.90;0.60;;;;;;;18.43;100.00;95982.75;5057268;28;20231;-66
2023/07/04 22:16:14;;;;;;;3.05;0.80;;;;;;;18.58;100.00;95974.28;5057528;28;20216;-67
2023/07/04 22:18:42;;;;;;;3.78;0.90;;;;;;;18.41;100.00;95968.03;5057980;28;20720;-66
2023/07/04 22:21:10;;;;;;;1.60;0.82;;;;;;;18.47;100.00;95972.44;5057050;28;20216;-66
2023/07/04 22:23:37;;;;;;;2.90;1.45;;;;;;;18.47;100.00;95973.25;5057430;28;20216;-69
2023/07/04 22:26:05;;;;;;;1.42;0.82;;;;;;;18.57;100.00;95970.81;5057527;28;20213;-68
2023/07/04 22:28:33;;;;;;;1.08;0.80;;;;;;;18.44;100.00;95972.91;5057115;28;20200;-66
2023/07/04 22:31:03;;;;;;;1.25;0.90;;;;;;;18.47;100.00;95973.25;5056813;28;20203;-66
2023/07/04 22:33:30;;;;;;;2.03;0.80;;;;;;;18.32;100.00;95969.41;5057684;28;20220;-69
2023/07/04 22:35:58;;;;;;;1.20;0.77;;;;;;;18.55;100.00;95964.88;5057455;28;20430;-69
2023/07/04 22:38:25;;;;;;;4.65;0.88;;;;;;;18.34;100.00;95961.97;5056496;28;20221;-66
2023/07/04 22:40:52;;;;;;;1.05;0.75;;;;;;;18.22;100.00;95968.38;5056692;28;20196;-68
2023/07/04 22:43:19;;;;;;;1.10;0.90;;;;;;;18.33;100.00;95957.72;5056495;28;21053;-65
2023/07/04 22:45:46;;;;;;;2.38;0.95;;;;;;;18.28;100.00;95959.41;5057221;28;21004;-67
2023/07/04 22:48:13;;;;;;;1.60;0.90;;;;;;;18.27;100.00;95949.81;5056470;28;20196;-64
2023/07/04 22:50:40;;;;;;;1.10;0.93;;;;;;;17.95;100.00;95946.59;5057630;28;20295;-67
2023/07/04 22:53:08;;;;;;;1.98;0.90;;;;;;;18.08;100.00;95942.91;5056933;28;20224;-68
2023/07/04 22:55:38;;;;;;;1.65;0.73;;;;;;;18.09;100.00;95945.34;5057165;28;20196;-66
2023/07/04 22:58:05;;;;;;;2.78;0.73;;;;;;;17.97;100.00;95935.69;5056233;28;20231;-68
2023/07/04 23:00:31;;;;;;;1.88;0.85;;;;;;;17.89;100.00;95944.03;5057436;28;20197;-64
2023/07/04 23:02:58;;;;;;;1.85;0.98;;;;;;;17.77;100.00;95954.66;5056648;28;20231;-67
2023/07/04 23:05:25;;;;;;;3.58;1.55;;;;;;;17.75;100.00;95963.94;5057244;28;20207;-68
2023/07/04 23:07:51;;;;;;;1.52;0.85;;;;;;;17.74;100.00;95954.31;5055884;28;20199;-66
2023/07/04 23:10:19;;;;;;;1.33;0.70;;;;;;;17.84;100.00;95951.91;5056542;28;20669;-65
2023/07/04 23:12:45;;;;;;;0.98;0.70;;;;;;;17.69;100.00;95951.50;5056686;28;20220;-66
2023/07/04 23:15:12;;;;;;;1.30;0.98;;;;;;;17.73;100.00;95945.50;5056760;28;20208;-68
2023/07/04 23:17:38;;;;;;;1.35;0.80;;;;;;;17.80;100.00;95945.41;5055959;28;20220;-65
2023/07/04 23:20:06;;;;;;;1.88;1.27;;;;;;;17.76;100.00;95957.56;5057027;28;20205;-68
2023/07/04 23:22:32;;;;;;;2.05;1.02;;;;;;;17.83;100.00;95963.59;5056974;28;20196;-69
2023/07/04 23:24:59;;;;;;;1.92;1.23;;;;;;;17.86;100.00;95974.63;5056506;28;20211;-66
2023/07/04 23:27:27;;;;;;;2.15;1.10;;;;;;;17.71;100.00;95992.09;5056036;28;20200;-68
2023/07/04 23:29:54;;;;;;;3.00;1.20;;;;;;;17.21;100.00;95997.84;5056267;28;20205;-67
2023/07/04 23:32:20;;;;;;;4.40;0.82;;;;;;;17.15;100.00;96007.53;5056239;28;20208;-64
2023/07/04 23:34:46;;;;;;;1.42;1.05;;;;;;;17.47;100.00;96029.50;5056973;28;20204;-66
2023/07/04 23:37:13;;;;;;;1.05;0.93;;;;;;;17.71;100.00;96072.03;5056053;28;20220;-67
2023/07/04 23:39:40;;;;;;;2.22;1.13;;;;;;;17.92;100.00;96072.38;5055907;28;20295;-67
2023/07/04 23:42:06;;;;;;;1.83;1.25;;;;;;;17.97;100.00;96080.50;5056740;28;20208;-66
2023/07/04 23:44:34;;;;;;;3.38;1.23;;;;;;;18.06;100.00;96094.31;5055984;28;20216;-65
2023/07/04 23:47:00;;;;;;;3.03;0.95;;;;;;;17.94;100.00;96099.59;5056105;28;20211;-66
2023/07/04 23:49:28;;;;;;;5.43;1.30;;;;;;;18.07;100.00;96087.94;5055417;28;20197;-68
2023/07/04 23:51:54;;;;;;;3.28;1.25;;;;;;;18.07;100.00;96093.28;5055990;28;20228;-67
2023/07/04 23:54:20;;;;;;;2.20;1.17;;;;;;;18.07;100.00;96078.09;5055416;28;20224;-66
2023/07/04 23:56:47;;;;;;;1.85;1.05;;;;;;;18.20;100.00;96063.78;5056873;28;20205;-64
2023/07/04 23:59:13;;;;;;;1.85;1.30;;;;;;;18.20;100.00;96050.44;5054965;28;20220;-67
